createdAt,value
2023-05-14T00:01:51.888Z,99396.13
2023-05-14T00:04:18.837Z,99405.09
2023-05-14T00:06:46.518Z,99409.06
2023-05-14T00:09:13.411Z,99409.47
2023-05-14T00:11:40.280Z,99403.41
2023-05-14T00:14:07.189Z,99445.75
2023-05-14T00:16:34.105Z,99408.66
2023-05-14T00:19:01.151Z,99412.53
2023-05-14T00:21:28.097Z,99398.94
2023-05-14T00:23:54.989Z,99396.94
2023-05-14T00:26:22.874Z,99418.34
2023-05-14T00:28:50.075Z,99424.72
2023-05-14T00:31:16.983Z,99436.09
2023-05-14T00:33:43.920Z,99426.25
2023-05-14T00:36:10.969Z,99410.53
2023-05-14T00:38:38.008Z,99449.69
2023-05-14T00:41:05.041Z,99439.88
2023-05-14T00:43:31.942Z,99452.16
2023-05-14T00:45:59.352Z,99434.38
2023-05-14T00:48:26.482Z,99431.84
2023-05-14T00:50:53.467Z,99402.78
2023-05-14T00:53:20.860Z,99429.31
2023-05-14T00:55:50.049Z,99421.03
2023-05-14T00:58:18.271Z,99442.50
2023-05-14T01:00:45.650Z,99447.81
2023-05-14T01:03:12.641Z,99426.63
2023-05-14T01:05:51.356Z,99439.13
2023-05-14T01:08:27.327Z,99457.47
2023-05-14T01:11:11.570Z,99449.06
2023-05-14T01:13:58.086Z,99446.19
2023-05-14T01:16:27.380Z,99443.63
2023-05-14T01:18:56.716Z,99440.31
2023-05-14T01:21:37.772Z,99459.41
2023-05-14T01:24:05.027Z,99446.19
2023-05-14T01:26:32.002Z,99457.94
2023-05-14T01:29:16.006Z,99452.13
2023-05-14T01:31:45.585Z,99427.63
2023-05-14T01:34:14.308Z,99456.34
2023-05-14T01:36:42.303Z,99464.94
2023-05-14T01:39:10.521Z,99450.69
2023-05-14T01:41:38.812Z,99444.13
2023-05-14T01:44:06.188Z,99460.00
2023-05-14T01:46:33.141Z,99441.78
2023-05-14T01:49:00.805Z,99464.22
2023-05-14T01:51:27.786Z,99443.84
2023-05-14T01:53:54.642Z,99462.88
2023-05-14T01:56:23.257Z,99456.00
2023-05-14T01:58:50.380Z,99463.63
2023-05-14T02:01:17.365Z,99462.63
2023-05-14T02:03:44.348Z,99469.06
2023-05-14T02:06:11.195Z,99472.00
2023-05-14T02:08:38.086Z,99467.50
2023-05-14T02:11:05.033Z,99477.47
2023-05-14T02:13:32.089Z,99487.22
2023-05-14T02:15:59.022Z,99468.78
2023-05-14T02:18:25.899Z,99479.47
2023-05-14T02:20:52.851Z,99493.94
2023-05-14T02:23:25.673Z,99485.19
2023-05-14T02:25:58.193Z,99482.13
2023-05-14T02:28:25.053Z,99453.50
2023-05-14T02:30:52.002Z,99481.09
2023-05-14T02:33:18.981Z,99473.41
2023-05-14T02:35:45.985Z,99507.13
2023-05-14T02:38:13.473Z,99474.63
2023-05-14T02:40:40.555Z,99465.44
2023-05-14T02:43:07.388Z,99492.75
2023-05-14T02:45:36.145Z,99470.28
2023-05-14T02:48:03.176Z,99524.56
2023-05-14T02:50:30.793Z,99479.44
2023-05-14T02:52:57.801Z,99478.53
2023-05-14T02:55:24.829Z,99473.31
2023-05-14T02:57:51.724Z,99478.63
2023-05-14T03:00:19.225Z,99480.56
2023-05-14T03:02:46.636Z,99469.50
2023-05-14T03:05:14.120Z,99471.44
2023-05-14T03:07:41.057Z,99467.69
2023-05-14T03:10:08.410Z,99477.56
2023-05-14T03:12:35.343Z,99463.50
2023-05-14T03:15:02.237Z,99491.19
2023-05-14T03:17:29.632Z,99511.75
2023-05-14T03:19:58.490Z,99482.00
2023-05-14T03:22:27.039Z,99493.50
2023-05-14T03:24:53.959Z,99479.28
2023-05-14T03:27:20.853Z,99484.91
2023-05-14T03:29:47.822Z,99483.66
2023-05-14T03:32:15.044Z,99491.88
2023-05-14T03:34:42.327Z,99490.63
2023-05-14T03:37:09.172Z,99475.66
2023-05-14T03:39:36.131Z,99486.69
2023-05-14T03:42:05.294Z,99494.84
2023-05-14T03:44:32.234Z,99510.53
2023-05-14T03:46:59.095Z,99498.38
2023-05-14T03:49:26.472Z,99484.41
2023-05-14T03:51:53.445Z,99497.00
2023-05-14T03:54:20.525Z,99496.31
2023-05-14T03:56:47.462Z,99495.09
2023-05-14T03:59:14.389Z,99499.34
2023-05-14T04:01:41.262Z,99558.41
2023-05-14T04:04:08.256Z,99504.41
2023-05-14T04:06:35.472Z,99481.63
2023-05-14T04:09:03.343Z,99501.22
2023-05-14T04:11:30.200Z,99490.50
2023-05-14T04:13:57.205Z,99518.03
2023-05-14T04:16:24.276Z,99493.41
2023-05-14T04:18:51.271Z,99388.34
2023-05-14T04:21:18.237Z,99505.63
2023-05-14T04:23:45.164Z,99509.59
2023-05-14T04:26:12.061Z,99513.19
2023-05-14T04:28:39.059Z,99525.00
2023-05-14T04:31:05.954Z,99504.03
2023-05-14T04:33:32.925Z,99505.78
2023-05-14T04:35:59.818Z,99507.53
2023-05-14T04:38:26.804Z,99474.72
2023-05-14T04:40:53.699Z,99469.06
2023-05-14T04:43:20.704Z,99503.13
2023-05-14T04:45:47.578Z,99481.50
2023-05-14T04:48:14.553Z,99490.53
2023-05-14T04:50:41.458Z,99501.03
2023-05-14T04:53:08.541Z,99490.81
2023-05-14T04:55:35.500Z,99497.72
2023-05-14T04:58:02.898Z,99493.53
2023-05-14T05:00:29.989Z,99486.19
2023-05-14T05:03:15.332Z,99495.38
2023-05-14T05:05:42.545Z,99504.50
2023-05-14T05:08:09.463Z,99495.97
2023-05-14T05:10:36.440Z,99476.13
2023-05-14T05:13:22.092Z,99521.66
2023-05-14T05:15:49.062Z,99485.84
2023-05-14T05:18:16.272Z,99504.28
2023-05-14T05:20:43.261Z,99490.25
2023-05-14T05:23:10.291Z,99498.16
2023-05-14T05:25:37.380Z,99477.72
2023-05-14T05:28:22.881Z,99493.94
2023-05-14T05:30:49.887Z,99497.41
2023-05-14T05:33:16.800Z,99489.97
2023-05-14T05:35:43.832Z,99512.31
2023-05-14T05:38:10.692Z,99478.31
2023-05-14T05:40:37.819Z,99502.88
2023-05-14T05:43:04.960Z,99496.47
2023-05-14T05:45:32.366Z,99524.38
2023-05-14T05:48:00.774Z,99518.03
2023-05-14T05:50:28.328Z,99512.19
2023-05-14T05:52:56.483Z,99525.69
2023-05-14T05:55:24.234Z,99498.66
2023-05-14T05:57:51.219Z,99503.97
2023-05-14T06:00:18.699Z,99494.66
2023-05-14T06:02:46.939Z,99491.63
2023-05-14T06:05:14.101Z,99508.44
2023-05-14T06:07:41.005Z,99488.53
2023-05-14T06:10:08.566Z,99485.59
2023-05-14T06:12:35.472Z,99477.97
2023-05-14T06:15:21.505Z,99483.75
2023-05-14T06:17:57.910Z,99508.88
2023-05-14T06:20:25.294Z,99487.53
2023-05-14T06:22:52.978Z,99492.84
2023-05-14T06:25:28.619Z,99496.34
2023-05-14T06:27:57.469Z,99500.84
2023-05-14T06:30:25.141Z,99506.88
2023-05-14T06:32:52.662Z,99485.53
2023-05-14T06:35:24.374Z,99485.84
2023-05-14T06:37:51.918Z,99478.94
2023-05-14T06:40:19.353Z,99479.78
2023-05-14T06:42:46.912Z,99493.59
2023-05-14T06:45:19.095Z,99475.31
2023-05-14T06:47:57.239Z,99466.66
2023-05-14T06:50:25.028Z,99500.69
2023-05-14T06:52:52.126Z,99482.88
2023-05-14T06:55:19.374Z,99473.44
2023-05-14T06:57:47.132Z,99475.88
2023-05-14T07:00:18.534Z,99483.31
2023-05-14T07:02:45.668Z,99496.13
2023-05-14T07:05:12.654Z,99471.75
2023-05-14T07:07:42.938Z,99477.75
2023-05-14T07:10:18.098Z,99468.78
2023-05-14T07:12:45.030Z,99488.53
2023-05-14T07:15:12.015Z,99478.59
2023-05-14T07:17:39.063Z,99482.22
2023-05-14T07:20:06.737Z,99491.97
2023-05-14T07:22:33.662Z,99490.69
2023-05-14T07:25:00.698Z,99497.91
2023-05-14T07:27:27.709Z,99474.28
2023-05-14T07:29:54.622Z,99489.09
2023-05-14T07:32:21.798Z,99492.19
2023-05-14T07:34:48.950Z,99476.44
2023-05-14T07:37:16.498Z,99491.75
2023-05-14T07:39:43.983Z,99456.75
2023-05-14T07:42:15.171Z,99488.16
2023-05-14T07:44:47.078Z,99468.16
2023-05-14T07:47:14.517Z,99480.44
2023-05-14T07:49:41.673Z,99475.06
2023-05-14T07:52:08.584Z,99477.72
2023-05-14T07:54:35.541Z,99471.25
2023-05-14T07:57:02.496Z,99472.41
2023-05-14T07:59:29.393Z,99455.41
2023-05-14T08:01:56.221Z,99478.78
2023-05-14T08:04:23.470Z,99469.00
2023-05-14T08:06:50.492Z,99478.19
2023-05-14T08:09:17.330Z,99463.94
2023-05-14T08:11:44.282Z,99452.31
2023-05-14T08:14:11.355Z,99471.88
2023-05-14T08:16:38.264Z,99459.72
2023-05-14T08:19:05.213Z,99467.88
2023-05-14T08:21:32.133Z,99472.50
2023-05-14T08:23:59.173Z,99447.53
2023-05-14T08:26:26.064Z,99455.19
2023-05-14T08:28:55.138Z,99465.13
2023-05-14T08:31:22.805Z,99453.31
2023-05-14T08:33:49.828Z,99458.34
2023-05-14T08:36:16.854Z,99453.97
2023-05-14T08:38:43.751Z,99443.88
2023-05-14T08:41:11.216Z,99433.34
2023-05-14T08:44:01.208Z,99434.59
2023-05-14T08:46:30.673Z,99429.88
2023-05-14T08:49:06.157Z,99436.97
2023-05-14T08:51:33.771Z,99428.91
2023-05-14T08:54:03.022Z,99433.84
2023-05-14T08:56:33.039Z,99415.88
2023-05-14T08:59:00.039Z,99422.78
2023-05-14T09:01:27.140Z,99439.50
2023-05-14T09:03:55.021Z,99443.41
2023-05-14T09:06:22.834Z,99416.19
2023-05-14T09:08:50.156Z,99416.84
2023-05-14T09:11:17.018Z,99436.56
2023-05-14T09:13:43.823Z,99426.16
2023-05-14T09:16:10.666Z,99414.47
2023-05-14T09:18:37.645Z,99395.44
2023-05-14T09:21:04.886Z,99409.78
2023-05-14T09:23:32.933Z,99419.13
2023-05-14T09:26:04.738Z,99438.03
2023-05-14T09:28:31.634Z,99415.69
2023-05-14T09:30:58.513Z,99422.28
2023-05-14T09:33:29.590Z,99420.31
2023-05-14T09:35:59.218Z,99399.97
2023-05-14T09:38:30.572Z,99404.38
2023-05-14T09:40:58.728Z,99423.78
2023-05-14T09:43:25.722Z,99395.31
2023-05-14T09:45:53.386Z,99427.59
2023-05-14T09:48:20.331Z,99404.63
2023-05-14T09:50:47.359Z,99393.09
2023-05-14T09:53:14.565Z,99403.41
2023-05-14T09:55:41.514Z,99410.78
2023-05-14T09:58:08.363Z,99400.88
2023-05-14T10:00:36.021Z,99492.28
2023-05-14T10:03:07.497Z,99386.22
2023-05-14T10:05:36.532Z,99387.66
2023-05-14T10:08:13.163Z,99380.94
2023-05-14T10:10:40.717Z,99398.72
2023-05-14T10:13:16.622Z,99411.59
2023-05-14T10:16:06.944Z,99407.09
2023-05-14T10:18:40.793Z,99402.66
2023-05-14T10:21:08.767Z,99398.25
2023-05-14T10:23:36.440Z,99399.72
2023-05-14T10:26:04.104Z,99414.94
2023-05-14T10:28:32.558Z,99364.78
2023-05-14T10:31:00.586Z,99393.06
2023-05-14T10:33:27.541Z,99391.06
2023-05-14T10:36:05.789Z,99390.66
2023-05-14T10:38:35.209Z,99389.16
2023-05-14T10:41:10.067Z,99391.88
2023-05-14T10:43:39.371Z,99367.34
2023-05-14T10:46:07.581Z,99375.63
2023-05-14T10:48:36.751Z,99382.28
2023-05-14T10:51:03.720Z,99358.84
2023-05-14T10:53:34.552Z,99393.25
2023-05-14T10:56:14.489Z,99394.50
2023-05-14T10:58:45.283Z,99376.41
2023-05-14T11:01:13.523Z,99389.09
2023-05-14T11:03:59.177Z,99399.88
2023-05-14T11:06:27.472Z,99386.69
2023-05-14T11:08:54.695Z,99373.00
2023-05-14T11:11:22.014Z,99383.06
2023-05-14T11:13:58.411Z,99370.97
2023-05-14T11:16:28.257Z,99404.66
2023-05-14T11:19:03.547Z,99375.19
2023-05-14T11:21:31.352Z,99396.50
2023-05-14T11:24:00.647Z,99394.97
2023-05-14T11:26:27.672Z,99406.41
2023-05-14T11:28:54.655Z,99362.97
2023-05-14T11:31:22.454Z,99398.03
2023-05-14T11:33:49.295Z,99362.59
2023-05-14T11:36:16.277Z,99366.75
2023-05-14T11:38:47.814Z,99359.75
2023-05-14T11:41:14.994Z,99387.09
2023-05-14T11:43:42.920Z,99379.38
2023-05-14T11:46:28.331Z,99408.81
2023-05-14T11:48:55.418Z,99382.44
2023-05-14T11:51:40.949Z,99400.78
2023-05-14T11:54:07.916Z,99383.94
2023-05-14T11:56:34.946Z,99378.44
2023-05-14T11:59:01.873Z,99389.59
2023-05-14T12:01:28.799Z,99402.41
2023-05-14T12:03:55.894Z,99376.41
2023-05-14T12:06:31.362Z,99398.25
2023-05-14T12:08:58.409Z,99381.88
2023-05-14T12:11:25.304Z,99379.09
2023-05-14T12:13:53.399Z,99361.94
2023-05-14T12:16:21.062Z,99405.38
2023-05-14T12:18:48.180Z,99388.47
2023-05-14T12:21:15.151Z,99374.66
2023-05-14T12:23:42.114Z,99384.94
2023-05-14T12:26:09.417Z,99379.72
2023-05-14T12:28:39.618Z,99382.78
2023-05-14T12:31:06.672Z,99372.06
2023-05-14T12:33:33.655Z,99382.50
2023-05-14T12:36:07.337Z,99395.16
2023-05-14T12:38:40.836Z,99394.69
2023-05-14T12:41:07.708Z,99359.25
2023-05-14T12:43:34.668Z,99369.19
2023-05-14T12:46:01.702Z,99380.09
2023-05-14T12:48:28.655Z,99379.09
2023-05-14T12:50:55.582Z,99396.22
2023-05-14T12:53:22.562Z,99395.84
2023-05-14T12:55:49.488Z,99363.22
2023-05-14T12:58:16.389Z,99382.28
2023-05-14T13:00:43.375Z,99388.25
2023-05-14T13:03:10.431Z,99378.38
2023-05-14T13:05:37.842Z,99409.81
2023-05-14T13:08:04.933Z,99418.25
2023-05-14T13:10:31.785Z,99418.13
2023-05-14T13:12:58.823Z,99414.97
2023-05-14T13:15:25.896Z,99409.84
2023-05-14T13:17:53.145Z,99401.38
2023-05-14T13:20:20.419Z,99428.84
2023-05-14T13:22:47.749Z,99443.19
2023-05-14T13:25:14.735Z,99449.34
2023-05-14T13:27:41.680Z,99436.34
2023-05-14T13:30:08.927Z,99413.56
2023-05-14T13:32:35.916Z,99422.91
2023-05-14T13:35:02.812Z,99414.59
2023-05-14T13:37:29.792Z,99422.91
2023-05-14T13:39:56.688Z,99439.34
2023-05-14T13:42:23.650Z,99437.31
2023-05-14T13:44:50.572Z,99426.03
2023-05-14T13:47:17.458Z,99456.19
2023-05-14T13:49:44.498Z,99435.22
2023-05-14T13:52:11.433Z,99415.38
2023-05-14T13:54:38.387Z,99431.63
2023-05-14T13:57:05.653Z,99447.16
2023-05-14T13:59:32.663Z,99441.97
2023-05-14T14:01:59.749Z,99425.31
2023-05-14T14:04:26.736Z,99449.50
2023-05-14T14:06:53.644Z,99466.56
2023-05-14T14:09:20.624Z,99442.44
2023-05-14T14:11:48.271Z,99460.31
2023-05-14T14:14:15.397Z,99462.09
2023-05-14T14:16:42.450Z,99452.31
2023-05-14T14:19:09.932Z,99461.75
2023-05-14T14:21:37.524Z,99469.78
2023-05-14T14:24:04.614Z,99455.88
2023-05-14T14:26:31.720Z,99491.72
2023-05-14T14:29:01.923Z,99470.47
2023-05-14T14:31:29.316Z,99472.78
2023-05-14T14:33:56.233Z,99479.59
2023-05-14T14:36:23.161Z,99480.25
2023-05-14T14:38:50.007Z,99479.91
2023-05-14T14:41:19.562Z,99475.59
2023-05-14T14:43:46.447Z,99482.31
2023-05-14T14:46:13.532Z,99493.63
2023-05-14T14:48:41.735Z,99405.53
2023-05-14T14:51:11.783Z,99490.59
2023-05-14T14:53:38.822Z,99475.44
2023-05-14T14:56:06.145Z,99491.63
2023-05-14T14:58:33.038Z,99489.13
2023-05-14T15:01:00.989Z,99476.94
2023-05-14T15:03:28.297Z,99493.16
2023-05-14T15:05:55.223Z,99479.09
2023-05-14T15:08:27.200Z,99477.66
2023-05-14T15:10:55.927Z,99489.66
2023-05-14T15:13:25.384Z,99497.41
2023-05-14T15:15:55.661Z,99498.78
2023-05-14T15:18:22.819Z,99483.19
2023-05-14T15:20:49.807Z,99521.16
2023-05-14T15:23:16.667Z,99490.13
2023-05-14T15:25:43.870Z,99505.78
2023-05-14T15:28:11.065Z,99511.50
2023-05-14T15:30:38.137Z,99486.53
2023-05-14T15:33:07.760Z,99495.78
2023-05-14T15:35:34.992Z,99494.25
2023-05-14T15:38:02.200Z,99509.69
2023-05-14T15:40:29.586Z,99490.56
2023-05-14T15:42:56.481Z,99493.53
2023-05-14T15:45:23.475Z,99522.13
2023-05-14T15:47:53.579Z,99503.69
2023-05-14T15:50:23.292Z,99507.28
2023-05-14T15:52:50.437Z,99518.31
2023-05-14T15:55:17.549Z,99502.09
2023-05-14T15:57:44.566Z,99498.38
2023-05-14T16:00:30.144Z,99517.25
2023-05-14T16:03:00.530Z,99515.63
2023-05-14T16:05:27.714Z,99497.63
2023-05-14T16:08:01.369Z,99543.41
2023-05-14T16:10:40.294Z,99539.16
2023-05-14T16:13:08.153Z,99527.75
2023-05-14T16:15:35.569Z,99535.19
2023-05-14T16:18:05.279Z,99532.47
2023-05-14T16:20:52.366Z,99544.09
2023-05-14T16:23:25.476Z,99533.69
2023-05-14T16:25:52.963Z,99501.16
2023-05-14T16:28:20.595Z,99535.06
2023-05-14T16:30:50.478Z,99533.88
2023-05-14T16:33:17.681Z,99546.09
2023-05-14T16:35:46.049Z,99536.25
2023-05-14T16:38:13.153Z,99557.69
2023-05-14T16:40:40.590Z,99568.66
2023-05-14T16:43:29.166Z,99569.38
2023-05-14T16:45:56.579Z,99568.25
2023-05-14T16:48:26.874Z,99584.97
2023-05-14T16:50:54.411Z,99572.34
2023-05-14T16:53:21.424Z,99513.53
2023-05-14T16:56:07.938Z,99576.88
2023-05-14T16:58:35.468Z,99575.44
2023-05-14T17:01:02.523Z,99600.38
2023-05-14T17:03:49.049Z,99574.81
2023-05-14T17:06:16.359Z,99578.88
2023-05-14T17:08:43.410Z,99595.97
2023-05-14T17:11:10.671Z,99604.53
2023-05-14T17:13:37.791Z,99591.75
2023-05-14T17:16:05.211Z,99599.75
2023-05-14T17:18:50.683Z,99581.41
2023-05-14T17:21:36.711Z,99610.84
2023-05-14T17:24:04.058Z,99604.00
2023-05-14T17:26:49.649Z,99607.56
2023-05-14T17:29:16.952Z,99616.16
2023-05-14T17:31:43.837Z,99625.34
2023-05-14T17:34:11.005Z,99624.50
2023-05-14T17:36:37.965Z,99616.91
2023-05-14T17:39:05.027Z,99609.19
2023-05-14T17:41:31.940Z,99613.13
2023-05-14T17:43:58.892Z,99623.66
2023-05-14T17:46:26.117Z,99631.53
2023-05-14T17:48:53.203Z,99649.16
2023-05-14T17:51:38.712Z,99624.56
2023-05-14T17:54:05.800Z,99639.06
2023-05-14T17:56:32.824Z,99625.44
2023-05-14T17:59:00.660Z,99648.72
2023-05-14T18:01:31.047Z,99653.28
2023-05-14T18:03:58.349Z,99663.78
2023-05-14T18:06:25.773Z,99660.69
2023-05-14T18:08:53.790Z,99653.44
2023-05-14T18:11:40.277Z,99686.53
2023-05-14T18:14:26.402Z,99670.19
2023-05-14T18:16:55.202Z,99654.22
2023-05-14T18:19:26.091Z,99660.38
2023-05-14T18:21:53.045Z,99657.91
2023-05-14T18:24:19.953Z,99672.00
2023-05-14T18:27:05.350Z,99677.56
2023-05-14T18:29:32.434Z,99678.25
2023-05-14T18:31:59.579Z,99675.66
2023-05-14T18:34:26.619Z,99692.13
2023-05-14T18:37:12.063Z,99683.63
2023-05-14T18:39:39.353Z,99677.16
2023-05-14T18:42:06.535Z,99675.09
2023-05-14T18:44:33.606Z,99681.75
2023-05-14T18:47:00.504Z,99710.44
2023-05-14T18:49:45.854Z,99674.41
2023-05-14T18:52:13.262Z,99697.59
2023-05-14T18:54:40.072Z,99689.81
2023-05-14T18:57:07.125Z,99694.41
2023-05-14T18:59:52.938Z,99696.72
2023-05-14T19:02:38.393Z,99685.13
2023-05-14T19:05:05.812Z,99681.44
2023-05-14T19:07:32.822Z,99669.78
2023-05-14T19:09:59.820Z,99704.44
2023-05-14T19:12:26.837Z,99690.50
2023-05-14T19:14:53.768Z,99692.06
2023-05-14T19:17:20.741Z,99687.44
2023-05-14T19:19:47.786Z,99696.03
2023-05-14T19:22:14.739Z,99701.28
2023-05-14T19:24:41.759Z,99722.03
2023-05-14T19:27:09.195Z,99712.00
2023-05-14T19:29:36.918Z,99698.81
2023-05-14T19:32:04.359Z,99735.69
2023-05-14T19:34:31.348Z,99709.88
2023-05-14T19:37:16.804Z,99713.78
2023-05-14T19:39:44.180Z,99731.63
2023-05-14T19:42:11.052Z,99721.06
2023-05-14T19:44:38.051Z,99694.78
2023-05-14T19:47:23.586Z,99701.69
2023-05-14T19:50:09.585Z,99707.97
2023-05-14T19:52:36.561Z,99730.94
2023-05-14T19:55:03.624Z,99730.00
2023-05-14T19:57:48.987Z,99715.88
2023-05-14T20:00:16.272Z,99709.34
2023-05-14T20:02:43.212Z,99723.75
2023-05-14T20:05:10.559Z,99721.47
2023-05-14T20:07:57.961Z,99712.75
2023-05-14T20:10:26.205Z,99712.59
2023-05-14T20:12:53.331Z,99735.31
2023-05-14T20:15:20.286Z,99717.97
2023-05-14T20:17:47.274Z,99707.81
2023-05-14T20:20:14.288Z,99706.22
2023-05-14T20:22:41.126Z,99696.97
2023-05-14T20:25:08.537Z,99723.50
2023-05-14T20:27:54.195Z,99724.22
2023-05-14T20:30:21.212Z,99735.78
2023-05-14T20:32:48.154Z,99715.06
2023-05-14T20:35:15.237Z,99736.59
2023-05-14T20:37:42.164Z,99717.81
2023-05-14T20:40:09.692Z,99736.34
2023-05-14T20:42:36.721Z,99732.91
2023-05-14T20:45:03.931Z,99728.25
2023-05-14T20:47:31.058Z,99719.66
2023-05-14T20:49:58.124Z,99760.22
2023-05-14T20:52:25.062Z,99752.84
2023-05-14T20:54:52.386Z,99749.00
2023-05-14T20:57:19.893Z,99740.75
2023-05-14T20:59:46.967Z,99746.84
2023-05-14T21:02:14.071Z,99754.06
2023-05-14T21:04:41.312Z,99725.16
2023-05-14T21:07:08.282Z,99759.03
2023-05-14T21:09:35.365Z,99749.19
2023-05-14T21:12:02.236Z,99761.72
2023-05-14T21:14:29.181Z,99745.91
2023-05-14T21:16:56.061Z,99764.34
2023-05-14T21:19:23.390Z,99763.28
2023-05-14T21:21:50.448Z,99767.47
2023-05-14T21:24:17.418Z,99770.56
2023-05-14T21:26:44.451Z,99789.06
2023-05-14T21:29:11.507Z,99762.69
2023-05-14T21:31:38.524Z,99775.78
2023-05-14T21:34:05.413Z,99732.09
2023-05-14T21:36:32.428Z,99757.09
2023-05-14T21:38:59.298Z,99769.16
2023-05-14T21:41:26.440Z,99739.03
2023-05-14T21:43:53.337Z,99777.84
2023-05-14T21:46:20.265Z,99744.28
2023-05-14T21:48:47.278Z,99722.50
2023-05-14T21:51:14.388Z,99756.72
2023-05-14T21:53:41.214Z,99755.53
2023-05-14T21:56:08.113Z,99751.06
2023-05-14T21:58:35.850Z,99738.97
2023-05-14T22:01:02.828Z,99752.28
2023-05-14T22:03:30.049Z,99740.09
2023-05-14T22:05:57.532Z,99777.56
2023-05-14T22:08:24.432Z,99750.81
2023-05-14T22:10:51.222Z,99764.84
2023-05-14T22:13:18.366Z,99768.97
2023-05-14T22:15:45.298Z,99758.81
2023-05-14T22:18:12.257Z,99756.63
2023-05-14T22:20:39.208Z,99762.19
2023-05-14T22:23:06.091Z,99751.31
2023-05-14T22:25:33.073Z,99754.34
2023-05-14T22:27:59.996Z,99762.59
2023-05-14T22:30:26.918Z,99740.09
2023-05-14T22:32:53.736Z,99762.34
2023-05-14T22:35:20.783Z,99778.94
2023-05-14T22:37:47.600Z,99750.69
2023-05-14T22:40:14.452Z,99762.03
2023-05-14T22:42:41.399Z,99760.88
2023-05-14T22:45:09.140Z,99740.91
2023-05-14T22:47:36.032Z,99780.09
2023-05-14T22:50:02.955Z,99756.31
2023-05-14T22:52:29.830Z,99741.31
2023-05-14T22:54:56.696Z,99753.00
2023-05-14T22:57:23.773Z,99782.38
2023-05-14T22:59:50.698Z,99726.63
2023-05-14T23:02:17.601Z,99734.91
2023-05-14T23:04:44.593Z,99730.41
2023-05-14T23:07:11.552Z,99745.47
2023-05-14T23:09:38.442Z,99763.19
2023-05-14T23:12:05.649Z,99753.75
2023-05-14T23:14:32.571Z,99775.63
2023-05-14T23:16:59.707Z,99752.25
2023-05-14T23:19:26.589Z,99751.50
2023-05-14T23:21:58.013Z,99771.84
2023-05-14T23:24:27.250Z,99769.97
2023-05-14T23:26:54.229Z,99770.34
2023-05-14T23:29:21.284Z,99765.78
2023-05-14T23:31:48.314Z,99767.34
2023-05-14T23:34:15.199Z,99754.16
2023-05-14T23:36:42.076Z,99757.13
2023-05-14T23:39:09.181Z,99761.31
2023-05-14T23:41:36.100Z,99758.28
2023-05-14T23:44:03.569Z,99782.38
2023-05-14T23:46:30.612Z,99759.41
2023-05-14T23:48:57.647Z,99761.28
2023-05-14T23:51:24.832Z,99739.44
2023-05-14T23:53:51.760Z,99780.88
2023-05-14T23:56:18.672Z,99775.56
2023-05-14T23:58:45.507Z,99780.84
